Westfield, New York
Current Conditions -  °F | °C
As of 7:53 AM on Saturday 25 Oct 2014 (Local Time) from KDKK Reporting Station
Overcast Overcast  
Wind Chill: 53°   Ceiling: 4300
Heat Index: 53°   Visibility: 10mi
Dew Point: 45°   Wind: 8mph
Humidity: 74%   Direction: 200°SSW
Pressure: 29.86"   Gusts: NA
Location:  42.32°N, 79.58°W
Report Text: KDKK 251153Z AUTO 20007KT 10SM OVC043 12/07 A2986 RMK AO2 SLP113 T01170072 10117 20111 58007
Loading
Personal Weather Stations






























Interactive Weather Map
Tropical Storm Tracking
New forecast layout! Learn more

10-Day Weather Forecast

Advertisements
Track Severe Weather on mobile